Time;durP1;ratioP1;P1;durP2;ratioP2;P2;SDS_P1;SDS_P2;PMS_P1;PMS_P2;Temp;Humidity;BMP_temperature;BMP_pressure;BME280_temperature;BME280_humidity;BME280_pressure;Samples;Min_cycle;Max_cycle;Signal;HPM_P1;HPM_P2
2023/11/19 00:02:21;;;;;;;8.35;5.38;;;;;;;4.30;65.16;100539.41;5067954;28;20453;-80
2023/11/19 00:04:47;;;;;;;7.90;5.72;;;;;;;4.40;64.97;100541.78;5075539;28;20569;-80
2023/11/19 00:07:13;;;;;;;11.18;6.47;;;;;;;4.36;65.08;100537.56;5073410;28;21467;-81
2023/11/19 00:09:39;;;;;;;8.25;6.07;;;;;;;4.49;65.20;100521.78;5055725;28;20110;-81
2023/11/19 00:12:06;;;;;;;11.52;5.97;;;;;;;4.57;65.13;100522.50;5069455;28;20063;-80
2023/11/19 00:14:32;;;;;;;9.27;6.30;;;;;;;4.56;65.02;100528.53;5057831;28;20036;-81
2023/11/19 00:16:57;;;;;;;10.32;7.20;;;;;;;4.68;65.17;100517.94;5058960;28;20035;-82
2023/11/19 00:19:23;;;;;;;9.48;6.40;;;;;;;4.62;65.30;100511.13;5053539;28;20448;-82
2023/11/19 00:21:48;;;;;;;15.80;7.93;;;;;;;4.63;65.80;100512.84;5057593;28;20032;-82
2023/11/19 00:24:16;;;;;;;12.70;8.40;;;;;;;4.38;67.35;100499.53;5051834;28;20048;-80
2023/11/19 00:26:42;;;;;;;16.75;9.15;;;;;;;4.84;66.08;100497.75;5072802;28;20039;-80
2023/11/19 00:29:08;;;;;;;11.98;8.20;;;;;;;4.79;66.97;100500.44;5077037;28;20037;-82
2023/11/19 00:31:33;;;;;;;14.48;9.20;;;;;;;5.03;65.90;100491.31;5073291;28;20035;-80
2023/11/19 00:33:59;;;;;;;13.63;9.20;;;;;;;5.13;65.54;100478.13;5070677;28;20111;-80
2023/11/19 00:36:25;;;;;;;14.85;9.27;;;;;;;5.15;66.16;100466.84;5076468;28;20047;-81
2023/11/19 00:38:52;;;;;;;15.50;9.20;;;;;;;5.07;66.45;100473.94;5074175;28;20029;-79
2023/11/19 00:41:18;;;;;;;16.75;8.45;;;;;;;5.22;65.83;100468.38;5077883;28;20844;-78
2023/11/19 00:43:44;;;;;;;15.32;8.93;;;;;;;5.24;65.91;100451.06;5074531;28;20036;-79
2023/11/19 00:46:13;;;;;;;17.35;9.35;;;;;;;5.40;65.60;100448.09;5079639;28;20081;-80
2023/11/19 00:48:39;;;;;;;17.25;9.23;;;;;;;5.45;65.04;100439.31;5075568;28;20040;-81
2023/11/19 00:51:05;;;;;;;20.83;9.27;;;;;;;5.33;65.82;100438.78;5074572;28;20074;-80
2023/11/19 00:53:34;;;;;;;15.90;9.27;;;;;;;5.45;65.34;100428.09;5062197;28;20089;-81
2023/11/19 00:56:00;;;;;;;17.77;9.13;;;;;;;5.49;65.64;100429.72;5064508;28;20091;-78
2023/11/19 00:58:26;;;;;;;16.35;9.95;;;;;;;5.55;65.65;100432.16;5072434;28;20136;-80
2023/11/19 01:00:51;;;;;;;16.15;9.68;;;;;;;5.72;65.28;100417.88;5079303;28;20028;-81
2023/11/19 01:03:17;;;;;;;17.02;9.73;;;;;;;5.62;66.04;100431.09;5050657;28;20132;-81
2023/11/19 01:05:43;;;;;;;18.88;10.60;;;;;;;5.68;65.86;100417.09;5059256;28;20055;-79
2023/11/19 01:08:09;;;;;;;17.98;7.90;;;;;;;5.80;65.60;100413.34;5061805;28;20052;-81
2023/11/19 01:10:37;;;;;;;19.92;10.07;;;;;;;5.91;65.74;100413.91;5056529;28;20019;-78
2023/11/19 01:13:05;;;;;;;17.27;9.77;;;;;;;5.85;66.14;100414.06;5057086;28;20537;-80
2023/11/19 01:15:32;;;;;;;13.85;8.85;;;;;;;5.86;66.90;100401.06;5073636;28;20043;-81
2023/11/19 01:17:58;;;;;;;16.13;9.75;;;;;;;5.78;67.74;100394.38;5069104;28;20040;-81
2023/11/19 01:20:24;;;;;;;17.95;8.80;;;;;;;5.87;68.19;100404.50;5073591;28;20043;-81
2023/11/19 01:22:50;;;;;;;17.50;9.70;;;;;;;6.18;67.12;100388.06;5074957;28;20064;-82
2023/11/19 01:25:16;;;;;;;16.77;7.78;;;;;;;6.25;68.09;100394.78;5054385;28;20031;-81
2023/11/19 01:27:43;;;;;;;18.95;8.50;;;;;;;6.15;69.89;100378.63;5058668;28;20050;-81
2023/11/19 01:30:12;;;;;;;20.42;9.98;;;;;;;6.36;69.45;100387.53;5052085;28;20115;-80
2023/11/19 01:32:38;;;;;;;19.33;9.65;;;;;;;6.61;68.99;100373.81;5056902;28;20044;-80
2023/11/19 01:35:04;;;;;;;16.33;8.57;;;;;;;6.62;68.70;100378.97;5076644;28;20107;-78
2023/11/19 01:37:31;;;;;;;16.83;9.02;;;;;;;6.64;68.84;100371.09;5052286;28;20388;-80
2023/11/19 01:39:57;;;;;;;31.48;10.70;;;;;;;5.94;72.13;100364.53;5076905;28;20028;-80
2023/11/19 01:42:25;;;;;;;21.08;9.25;;;;;;;6.64;69.63;100363.31;5074685;28;20051;-77
2023/11/19 01:45:01;;;;;;;23.60;10.85;;;;;;;6.42;71.36;100351.03;5076431;28;20025;-80
2023/11/19 01:47:30;;;;;;;21.20;10.07;;;;;;;6.62;70.93;100358.19;5055984;28;20048;-80
2023/11/19 01:49:56;;;;;;;23.80;10.05;;;;;;;6.59;69.95;100362.63;5079440;28;20069;-79
2023/11/19 01:52:23;;;;;;;24.63;11.05;;;;;;;6.70;70.18;100347.53;5061425;28;20119;-80
2023/11/19 01:54:50;;;;;;;22.95;10.13;;;;;;;6.98;69.44;100349.25;5060925;28;20024;-81
2023/11/19 01:57:15;;;;;;;22.70;9.85;;;;;;;6.69;70.86;100358.84;5069600;28;20436;-80
2023/11/19 01:59:41;;;;;;;16.58;7.90;;;;;;;7.19;68.63;100348.50;5059382;28;20024;-80
2023/11/19 02:02:07;;;;;;;16.80;8.82;;;;;;;7.06;69.59;100357.63;5060080;28;20133;-80
2023/11/19 02:04:34;;;;;;;16.63;9.43;;;;;;;6.91;70.26;100354.66;5076846;28;20057;-82
2023/11/19 02:07:00;;;;;;;16.55;8.00;;;;;;;7.07;70.13;100364.53;5062268;28;20024;-82
2023/11/19 02:09:27;;;;;;;20.92;8.85;;;;;;;7.31;68.78;100350.69;5053706;28;20043;-80
2023/11/19 02:11:53;;;;;;;16.38;8.32;;;;;;;7.25;69.35;100350.91;5059029;28;20030;-81
2023/11/19 02:14:24;;;;;;;17.58;8.48;;;;;;;7.03;69.72;100334.34;5055612;28;20036;-80
2023/11/19 02:16:49;;;;;;;17.25;7.43;;;;;;;7.29;69.28;100321.31;5079388;28;20039;-82
2023/11/19 02:19:15;;;;;;;17.92;7.53;;;;;;;7.34;69.47;100321.13;5073399;28;20048;-81
2023/11/19 02:21:41;;;;;;;13.68;7.45;;;;;;;7.30;69.75;100319.53;5068073;28;20024;-80
2023/11/19 02:24:11;;;;;;;22.60;8.00;;;;;;;7.20;69.98;100316.44;5075004;28;20040;-81
2023/11/19 02:26:39;;;;;;;14.18;7.85;;;;;;;7.37;69.70;100312.38;5068017;28;20020;-80
2023/11/19 02:29:06;;;;;;;22.60;8.52;;;;;;;7.13;70.21;100314.91;5076750;28;20043;-81
2023/11/19 02:31:32;;;;;;;14.80;6.22;;;;;;;7.56;69.17;100313.47;5086737;27;20089;-83
2023/11/19 02:34:02;;;;;;;14.52;7.60;;;;;;;7.36;69.93;100310.69;5059737;28;20168;-81
2023/11/19 02:36:28;;;;;;;20.30;7.28;;;;;;;7.38;70.50;100311.47;5073048;28;20043;-80
2023/11/19 02:38:53;;;;;;;14.57;7.28;;;;;;;7.38;70.61;100306.25;5073544;28;20048;-80
2023/11/19 02:41:19;;;;;;;19.52;7.05;;;;;;;7.75;68.49;100300.59;5070041;28;20496;-81
2023/11/19 02:43:44;;;;;;;21.83;7.35;;;;;;;7.78;68.33;100304.84;5070323;28;20047;-81
2023/11/19 02:46:10;;;;;;;24.80;7.50;;;;;;;7.48;70.04;100305.88;5062100;28;20032;-80
2023/11/19 02:48:36;;;;;;;23.17;7.50;;;;;;;7.62;69.48;100304.56;5065233;28;20743;-80
2023/11/19 02:51:09;;;;;;;20.63;7.18;;;;;;;7.70;69.03;100312.94;5075569;28;20051;-81
2023/11/19 02:53:34;;;;;;;18.35;7.05;;;;;;;7.76;68.57;100301.44;5057855;28;20040;-80
2023/11/19 02:56:15;;;;;;;21.52;7.28;;;;;;;7.64;68.87;100308.81;5077048;28;20103;-81
2023/11/19 02:58:44;;;;;;;27.48;8.15;;;;;;;7.83;68.75;100297.75;5045266;28;20044;-80
2023/11/19 03:01:19;;;;;;;17.95;6.13;;;;;;;7.78;68.77;100305.72;5061417;28;20532;-81
2023/11/19 03:03:49;;;;;;;19.38;6.35;;;;;;;7.44;70.22;100308.66;5058145;28;20055;-81
2023/11/19 03:06:14;;;;;;;14.60;5.05;;;;;;;7.83;69.14;100305.53;5071291;28;20114;-79
2023/11/19 03:08:40;;;;;;;21.42;6.07;;;;;;;7.82;69.08;100301.22;5070697;28;20128;-79
2023/11/19 03:11:05;;;;;;;13.60;5.70;;;;;;;7.60;70.04;100302.03;5073347;28;20076;-82
2023/11/19 03:13:31;;;;;;;19.73;6.00;;;;;;;7.42;70.86;100302.66;5052873;28;20716;-81
2023/11/19 03:15:56;;;;;;;20.58;6.05;;;;;;;7.86;69.29;100302.81;5060711;28;20023;-83
2023/11/19 03:18:22;;;;;;;22.50;4.97;;;;;;;7.85;69.06;100301.13;5068398;28;20098;-80
2023/11/19 03:20:47;;;;;;;29.83;5.57;;;;;;;7.59;70.11;100300.31;5050525;28;20124;-82
2023/11/19 03:23:13;;;;;;;25.00;4.70;;;;;;;7.70;69.80;100303.38;5074248;28;20036;-82
2023/11/19 03:25:39;;;;;;;22.65;5.00;;;;;;;7.89;68.55;100287.06;5066217;28;20512;-83
2023/11/19 03:28:04;;;;;;;26.10;4.65;;;;;;;7.90;67.92;100289.63;5075449;28;20044;-79
2023/11/19 03:30:31;;;;;;;15.75;4.63;;;;;;;7.64;69.69;100287.16;5070451;28;20127;-80
2023/11/19 03:33:02;;;;;;;28.45;5.00;;;;;;;7.72;69.09;100272.97;5074083;28;20457;-81
2023/11/19 03:35:28;;;;;;;19.75;4.00;;;;;;;7.58;70.16;100271.78;5075609;28;20089;-80
2023/11/19 03:37:54;;;;;;;24.65;3.80;;;;;;;7.88;69.07;100277.59;5056697;28;20043;-83
2023/11/19 03:40:20;;;;;;;19.50;3.78;;;;;;;7.84;68.99;100284.66;5057842;28;20036;-81
2023/11/19 03:42:46;;;;;;;12.68;2.72;;;;;;;7.95;68.26;100279.03;5072712;28;20472;-82
2023/11/19 03:45:11;;;;;;;32.67;3.97;;;;;;;7.91;68.74;100269.66;5054456;28;20031;-81
2023/11/19 03:47:37;;;;;;;26.27;4.18;;;;;;;7.56;69.57;100271.84;5053359;28;20053;-82
2023/11/19 03:50:04;;;;;;;28.33;4.80;;;;;;;7.76;68.93;100270.22;5076828;28;20062;-81
2023/11/19 03:52:29;;;;;;;25.58;3.63;;;;;;;8.04;67.72;100270.88;5070228;28;20048;-80
2023/11/19 03:54:56;;;;;;;27.48;3.88;;;;;;;7.61;70.19;100272.50;5057445;28;20669;-81
2023/11/19 03:57:21;;;;;;;29.50;3.33;;;;;;;7.87;68.70;100265.47;5063529;28;20177;-82
2023/11/19 03:59:48;;;;;;;24.33;3.00;;;;;;;7.80;68.63;100264.00;5073498;28;20020;-82
2023/11/19 04:02:13;;;;;;;29.95;4.15;;;;;;;7.76;68.17;100272.84;5074620;28;20032;-82
2023/11/19 04:04:39;;;;;;;34.78;4.55;;;;;;;7.58;68.86;100272.63;5055720;28;20044;-81
2023/11/19 04:07:05;;;;;;;23.40;2.95;;;;;;;8.07;67.94;100262.97;5074137;28;20027;-80
2023/11/19 04:09:32;;;;;;;26.40;3.47;;;;;;;7.90;68.23;100267.97;5073444;28;20044;-83
2023/11/19 04:12:00;;;;;;;32.78;4.20;;;;;;;7.70;68.23;100251.34;5058101;28;20029;-80
2023/11/19 04:14:26;;;;;;;22.95;4.15;;;;;;;8.19;66.88;100258.19;5077447;28;20059;-83
2023/11/19 04:16:52;;;;;;;30.67;3.53;;;;;;;7.90;68.13;100257.56;5062226;28;21493;-80
2023/11/19 04:19:19;;;;;;;23.83;4.93;;;;;;;8.01;67.11;100252.78;5077193;28;20032;-80
2023/11/19 04:21:45;;;;;;;33.13;2.97;;;;;;;8.19;67.01;100238.19;5073562;28;20039;-83
2023/11/19 04:24:14;;;;;;;30.70;4.13;;;;;;;8.11;67.38;100246.31;5062821;28;20198;-84
2023/11/19 04:26:45;;;;;;;33.75;3.55;;;;;;;7.79;68.02;100244.13;5080071;28;20032;-82
2023/11/19 04:29:15;;;;;;;28.50;4.65;;;;;;;7.94;67.75;100243.53;5060579;28;20048;-82
2023/11/19 04:31:41;;;;;;;24.95;2.97;;;;;;;7.99;67.36;100249.41;5079323;28;20032;-83
2023/11/19 04:34:07;;;;;;;30.60;3.60;;;;;;;7.75;67.77;100253.78;5077611;28;20040;-83
2023/11/19 04:36:33;;;;;;;27.83;2.70;;;;;;;7.76;67.49;100242.50;5060189;28;20825;-82
2023/11/19 04:39:00;;;;;;;22.10;3.05;;;;;;;7.88;67.51;100243.75;5061092;28;20040;-82
2023/11/19 04:41:27;;;;;;;29.35;3.08;;;;;;;7.90;67.33;100255.81;5076250;28;20047;-80
2023/11/19 04:43:53;;;;;;;27.45;4.53;;;;;;;7.59;68.31;100248.31;5075838;28;20056;-85
2023/11/19 04:46:20;;;;;;;21.88;3.22;;;;;;;7.80;67.18;100240.59;5078733;28;20036;-85
2023/11/19 04:48:45;;;;;;;38.50;5.43;;;;;;;7.78;67.15;100242.41;5069365;28;20051;-83
2023/11/19 04:51:11;;;;;;;22.88;3.03;;;;;;;7.93;66.57;100236.63;5078605;28;20430;-83
2023/11/19 04:53:36;;;;;;;30.50;4.03;;;;;;;7.86;66.65;100236.00;5073209;28;20040;-78
2023/11/19 04:56:08;;;;;;;22.83;3.17;;;;;;;7.63;66.87;100233.44;5068941;28;20561;-81
2023/11/19 04:58:35;;;;;;;;;;;;;;;7.53;68.33;100227.69;5069917;28;20131;-80
2023/11/19 05:01:01;;;;;;;14.07;3.47;;;;;;;7.62;67.30;100232.59;5075675;28;19965;-81
2023/11/19 05:03:27;;;;;;;21.30;2.80;;;;;;;7.74;67.55;100237.34;5053936;28;20044;-78
2023/11/19 05:05:53;;;;;;;20.38;2.65;;;;;;;7.66;67.81;100238.53;5064990;28;20514;-80
2023/11/19 05:08:18;;;;;;;26.88;3.60;;;;;;;7.67;66.89;100235.88;5076649;28;20048;-82
2023/11/19 05:10:44;;;;;;;17.67;2.50;;;;;;;7.61;67.55;100236.09;5056157;28;20032;-82
2023/11/19 05:13:10;;;;;;;21.52;3.17;;;;;;;7.87;66.66;100227.31;5070258;28;20049;-82
2023/11/19 05:15:35;;;;;;;20.50;2.95;;;;;;;7.53;67.49;100227.69;5074770;28;20028;-83
2023/11/19 05:18:01;;;;;;;23.17;4.10;;;;;;;7.64;66.59;100225.56;5053947;28;20040;-82
2023/11/19 05:20:27;;;;;;;18.95;3.75;;;;;;;7.53;67.17;100238.09;5075449;28;20024;-82
2023/11/19 05:22:53;;;;;;;38.00;4.25;;;;;;;7.51;66.99;100225.19;5072816;28;20064;-83
2023/11/19 05:25:19;;;;;;;29.15;5.00;;;;;;;7.82;65.20;100225.78;5061761;28;20200;-79
2023/11/19 05:27:45;;;;;;;19.05;2.35;;;;;;;7.70;66.66;100220.13;5057498;28;20490;-79
2023/11/19 05:30:11;;;;;;;18.90;2.90;;;;;;;7.50;66.54;100222.63;5072162;28;20036;-82
2023/11/19 05:32:37;;;;;;;19.25;3.30;;;;;;;7.70;66.15;100229.72;5060426;28;20493;-80
2023/11/19 05:35:03;;;;;;;25.17;4.40;;;;;;;7.70;66.04;100233.16;5072458;28;20028;-80
2023/11/19 05:37:29;;;;;;;22.27;2.95;;;;;;;7.47;67.23;100227.97;5070682;28;20056;-83
2023/11/19 05:39:54;;;;;;;18.45;3.17;;;;;;;7.89;66.25;100243.72;5061015;28;20059;-82
2023/11/19 05:42:20;;;;;;;16.65;2.78;;;;;;;7.48;66.63;100245.22;5059657;28;20035;-83
2023/11/19 05:44:46;;;;;;;20.33;2.83;;;;;;;7.83;65.86;100246.53;5072042;28;20055;-79
2023/11/19 05:47:12;;;;;;;23.55;3.47;;;;;;;7.89;65.57;100235.91;5074833;28;20063;-81
2023/11/19 05:49:37;;;;;;;27.90;5.57;;;;;;;7.82;66.16;100246.59;5077084;28;20060;-81
2023/11/19 05:52:03;;;;;;;22.77;4.25;;;;;;;7.59;66.58;100247.47;5074712;28;20032;-82
2023/11/19 05:54:29;;;;;;;26.08;3.58;;;;;;;7.94;65.67;100256.53;5075707;28;20053;-81
2023/11/19 05:56:54;;;;;;;36.83;3.85;;;;;;;7.63;66.09;100255.09;5072586;28;20117;-82
2023/11/19 05:59:22;;;;;;;22.20;3.78;;;;;;;7.52;66.14;100249.41;5076053;28;20606;-81
2023/11/19 06:01:49;;;;;;;27.98;4.80;;;;;;;7.82;65.08;100249.19;5057559;28;20042;-81
2023/11/19 06:04:16;;;;;;;31.33;4.90;;;;;;;7.72;64.86;100239.16;5081106;28;20123;-84
2023/11/19 06:06:42;;;;;;;18.17;3.38;;;;;;;7.67;65.70;100251.50;5061235;28;20657;-81
2023/11/19 06:09:07;;;;;;;27.38;3.33;;;;;;;7.67;64.92;100264.50;5073500;28;20036;-83
2023/11/19 06:11:35;;;;;;;24.33;3.85;;;;;;;8.02;64.55;100249.25;5058869;28;20445;-80
2023/11/19 06:14:02;;;;;;;21.60;3.72;;;;;;;7.86;65.09;100263.78;5051877;28;20040;-81
2023/11/19 06:16:27;;;;;;;28.20;3.22;;;;;;;7.68;65.15;100266.16;5079242;28;20028;-82
2023/11/19 06:18:53;;;;;;;28.88;3.92;;;;;;;7.32;66.40;100266.59;5071024;28;21207;-81
2023/11/19 06:21:19;;;;;;;22.55;2.75;;;;;;;7.71;65.45;100254.81;5064008;28;20034;-81
2023/11/19 06:23:45;;;;;;;30.42;3.65;;;;;;;7.81;64.83;100263.13;5070991;28;20078;-80
2023/11/19 06:26:10;;;;;;;34.83;3.65;;;;;;;7.78;65.06;100263.22;5074127;28;20028;-80
2023/11/19 06:28:36;;;;;;;34.88;3.78;;;;;;;7.49;65.76;100278.16;5077551;28;20043;-81
2023/11/19 06:31:03;;;;;;;21.85;3.38;;;;;;;7.68;65.26;100268.78;5074158;28;20047;-83
2023/11/19 06:33:29;;;;;;;24.80;3.08;;;;;;;7.87;64.65;100268.06;5056138;28;20491;-81
2023/11/19 06:35:55;;;;;;;24.30;4.10;;;;;;;7.53;64.94;100266.72;5073383;28;20032;-86
2023/11/19 06:38:20;;;;;;;26.95;3.72;;;;;;;7.60;65.26;100276.03;5074440;28;20051;-86
2023/11/19 06:40:46;;;;;;;24.95;4.28;;;;;;;7.51;65.14;100277.19;5065941;28;20058;-84
2023/11/19 06:43:11;;;;;;;29.85;3.42;;;;;;;7.71;64.53;100276.47;5074805;28;20051;-84
2023/11/19 06:45:37;;;;;;;24.63;4.18;;;;;;;7.92;64.05;100276.56;5067336;28;20040;-83
2023/11/19 06:48:03;;;;;;;23.38;3.58;;;;;;;7.35;65.13;100281.22;5056681;28;20048;-85
2023/11/19 06:50:29;;;;;;;28.23;3.65;;;;;;;7.14;66.58;100276.81;5073911;28;20031;-85
2023/11/19 06:52:55;;;;;;;26.98;5.43;;;;;;;7.61;64.65;100282.91;5052987;28;20047;-82
2023/11/19 06:55:20;;;;;;;28.60;4.57;;;;;;;7.16;65.96;100275.00;5074765;28;20386;-85
2023/11/19 06:57:45;;;;;;;26.63;3.72;;;;;;;7.26;66.04;100272.00;5066585;28;20028;-83
2023/11/19 07:00:12;;;;;;;33.20;3.15;;;;;;;7.65;64.81;100276.69;5080696;28;20043;-82
2023/11/19 07:02:37;;;;;;;27.67;4.35;;;;;;;7.11;66.15;100289.00;5063822;28;20040;-86
2023/11/19 07:05:04;;;;;;;31.23;3.83;;;;;;;7.28;65.25;100290.16;5056777;28;21744;-84
2023/11/19 07:07:32;;;;;;;26.95;3.83;;;;;;;7.42;64.92;100282.72;5076660;28;20118;-82
2023/11/19 07:09:57;;;;;;;33.08;4.32;;;;;;;7.51;64.80;100286.72;5073336;28;20028;-81
2023/11/19 07:12:22;;;;;;;30.67;3.58;;;;;;;7.38;65.49;100290.66;5069106;28;20046;-79
2023/11/19 07:14:48;;;;;;;27.67;3.90;;;;;;;7.38;65.39;100288.06;5067306;28;20025;-82
2023/11/19 07:17:14;;;;;;;32.92;4.45;;;;;;;7.10;65.57;100289.06;5059577;28;20036;-80
2023/11/19 07:19:40;;;;;;;28.02;5.28;;;;;;;7.46;64.36;100284.28;5075608;28;20049;-80
2023/11/19 07:22:06;;;;;;;30.70;3.95;;;;;;;7.44;64.61;100293.06;5059733;28;20035;-80
2023/11/19 07:24:32;;;;;;;25.75;3.80;;;;;;;7.36;64.76;100302.91;5075482;28;20131;-81
2023/11/19 07:26:57;;;;;;;30.23;4.18;;;;;;;7.26;65.15;100303.19;5057666;28;20032;-81
2023/11/19 07:29:23;;;;;;;21.63;2.85;;;;;;;7.37;64.15;100300.22;5074083;28;20062;-78
2023/11/19 07:31:49;;;;;;;32.72;3.72;;;;;;;7.57;63.67;100301.28;5050846;28;20040;-80
2023/11/19 07:34:15;;;;;;;30.48;3.88;;;;;;;7.45;63.98;100297.38;5074735;28;20060;-82
2023/11/19 07:36:41;;;;;;;37.47;3.63;;;;;;;7.50;64.09;100295.44;5076766;28;20113;-81
2023/11/19 07:39:06;;;;;;;25.02;4.43;;;;;;;7.09;65.34;100301.19;5057409;28;20039;-82
2023/11/19 07:41:32;;;;;;;28.95;4.40;;;;;;;7.04;64.41;100297.94;5082852;28;20478;-81
2023/11/19 07:43:59;;;;;;;30.52;3.20;;;;;;;7.43;63.95;100304.38;5070649;28;20048;-81
2023/11/19 07:46:25;;;;;;;22.92;3.50;;;;;;;7.65;63.20;100307.06;5076548;28;20062;-79
2023/11/19 07:48:52;;;;;;;31.50;3.72;;;;;;;7.39;63.76;100307.97;5075670;28;20074;-82
2023/11/19 07:51:17;;;;;;;34.63;5.65;;;;;;;7.24;64.53;100302.41;5061774;28;20089;-82
2023/11/19 07:53:43;;;;;;;32.60;5.75;;;;;;;7.57;63.33;100315.13;5080867;28;20048;-80
2023/11/19 07:56:09;;;;;;;31.17;4.60;;;;;;;7.41;63.49;100311.38;5073405;28;20569;-81
2023/11/19 07:58:34;;;;;;;32.75;4.25;;;;;;;7.39;63.47;100313.19;5064899;28;20040;-81
2023/11/19 08:01:01;;;;;;;31.00;3.13;;;;;;;7.46;62.76;100319.84;5075360;28;20024;-83
2023/11/19 08:03:27;;;;;;;36.42;5.07;;;;;;;7.70;62.63;100313.78;5096366;27;20032;-77
2023/11/19 08:05:56;;;;;;;24.58;4.63;;;;;;;7.38;64.16;100314.94;5099143;28;20039;-79
2023/11/19 08:08:22;;;;;;;24.23;3.60;;;;;;;7.56;63.75;100323.00;5101843;28;20059;-79
2023/11/19 08:10:49;;;;;;;43.90;5.38;;;;;;;7.12;64.45;100326.22;5098411;28;20029;-77
2023/11/19 08:13:15;;;;;;;33.90;4.35;;;;;;;7.56;63.13;100321.25;5097142;27;20040;-78
2023/11/19 08:15:40;;;;;;;28.27;3.92;;;;;;;7.33;63.75;100322.91;5096870;28;20020;-78
2023/11/19 08:18:07;;;;;;;24.83;3.78;;;;;;;7.43;63.85;100325.16;5096898;28;20829;-78
2023/11/19 08:20:33;;;;;;;23.10;3.45;;;;;;;7.88;62.49;100325.25;5088801;28;20040;-83
2023/11/19 08:22:59;;;;;;;35.35;4.35;;;;;;;7.60;63.28;100333.25;5074772;28;20059;-81
2023/11/19 08:25:24;;;;;;;28.88;2.92;;;;;;;7.81;62.53;100335.97;5079530;28;20032;-79
2023/11/19 08:27:50;;;;;;;35.13;5.00;;;;;;;7.64;62.62;100334.81;5054086;28;20131;-79
2023/11/19 08:30:16;;;;;;;20.38;4.22;;;;;;;7.80;62.36;100334.25;5080600;28;20107;-81
2023/11/19 08:32:41;;;;;;;25.50;2.83;;;;;;;7.60;63.26;100337.59;5073367;28;20074;-78
2023/11/19 08:35:07;;;;;;;39.15;4.70;;;;;;;7.75;63.64;100342.22;5068095;28;20497;-80
2023/11/19 08:37:36;;;;;;;36.40;4.13;;;;;;;7.54;64.12;100349.03;5059313;28;20079;-78
2023/11/19 08:40:04;;;;;;;34.33;4.22;;;;;;;7.84;63.70;100341.03;5075193;28;20408;-80
2023/11/19 08:42:29;;;;;;;24.77;3.60;;;;;;;7.87;63.41;100347.00;5072631;28;20080;-78
2023/11/19 08:44:55;;;;;;;26.02;3.55;;;;;;;7.48;64.27;100344.03;5055469;28;20024;-81
2023/11/19 08:47:22;;;;;;;34.40;4.15;;;;;;;7.78;63.63;100351.66;5079876;28;20558;-82
2023/11/19 08:49:50;;;;;;;33.67;4.95;;;;;;;7.76;64.13;100350.88;5081104;28;20035;-80
2023/11/19 08:52:17;;;;;;;41.50;4.88;;;;;;;7.41;64.50;100352.97;5077498;28;20027;-81
2023/11/19 08:54:43;;;;;;;19.42;3.88;;;;;;;7.40;64.19;100353.84;5084429;28;20080;-81
2023/11/19 08:57:09;;;;;;;26.10;2.97;;;;;;;7.91;63.21;100363.31;5074951;28;20039;-85
2023/11/19 08:59:35;;;;;;;36.05;5.38;;;;;;;8.05;62.99;100358.47;5076197;28;20016;-81
2023/11/19 09:02:01;;;;;;;26.98;3.45;;;;;;;7.87;63.04;100359.13;5071534;28;20379;-82
2023/11/19 09:04:27;;;;;;;25.80;2.67;;;;;;;7.52;63.93;100356.03;5071132;28;20672;-82
2023/11/19 09:06:53;;;;;;;27.05;3.13;;;;;;;7.49;64.23;100363.97;5084282;28;20037;-77
2023/11/19 09:09:19;;;;;;;33.28;5.03;;;;;;;8.06;62.42;100367.97;5076502;28;20086;-81
2023/11/19 09:11:44;;;;;;;32.88;6.25;;;;;;;7.58;63.64;100357.59;5060215;28;20039;-80
2023/11/19 09:14:10;;;;;;;22.05;3.35;;;;;;;7.73;63.07;100364.84;5056745;28;20063;-80
2023/11/19 09:16:36;;;;;;;31.83;3.88;;;;;;;7.39;63.95;100365.19;5070021;28;20605;-80
2023/11/19 09:19:02;;;;;;;36.10;3.90;;;;;;;7.67;63.48;100371.13;5071262;28;20060;-81
2023/11/19 09:21:32;;;;;;;34.92;5.22;;;;;;;8.11;62.28;100376.47;5077326;28;20036;-81
2023/11/19 09:23:57;;;;;;;25.67;3.95;;;;;;;8.03;62.92;100383.72;5069175;28;20040;-81
2023/11/19 09:26:24;;;;;;;29.33;3.85;;;;;;;8.47;61.60;100383.78;5066677;28;20023;-79
2023/11/19 09:28:50;;;;;;;32.60;4.03;;;;;;;8.35;61.54;100379.03;5053189;28;20104;-78
2023/11/19 09:31:18;;;;;;;35.72;4.47;;;;;;;8.42;60.72;100364.84;5069544;28;20032;-80
2023/11/19 09:33:45;;;;;;;18.98;3.30;;;;;;;8.31;61.13;100380.88;5084031;28;20261;-80
2023/11/19 09:36:14;;;;;;;30.20;3.83;;;;;;;8.04;62.37;100387.16;5079309;28;20041;-80
2023/11/19 09:38:40;;;;;;;30.48;3.63;;;;;;;8.22;61.43;100383.84;5028302;28;20052;-81
2023/11/19 09:41:11;;;;;;;22.75;2.85;;;;;;;7.65;62.91;100383.34;5074620;28;20050;-81
2023/11/19 09:43:39;;;;;;;30.88;4.22;;;;;;;8.26;61.46;100379.38;5060997;28;20106;-78
2023/11/19 09:46:06;;;;;;;36.20;4.35;;;;;;;7.99;61.93;100381.28;5088242;28;20115;-79
2023/11/19 09:48:36;;;;;;;32.80;5.25;;;;;;;7.95;62.03;100375.31;5067619;28;20044;-79
2023/11/19 09:51:04;;;;;;;21.88;3.30;;;;;;;7.48;63.12;100380.44;5073958;28;20040;-80
2023/11/19 09:53:30;;;;;;;33.10;4.47;;;;;;;7.89;62.09;100385.94;5063316;28;20066;-81
2023/11/19 09:55:56;;;;;;;22.75;3.53;;;;;;;8.00;61.97;100383.78;5076611;28;20032;-76
2023/11/19 09:58:22;;;;;;;28.67;4.85;;;;;;;7.98;62.08;100392.56;5068823;28;20037;-81
2023/11/19 10:00:51;;;;;;;29.05;4.53;;;;;;;7.55;63.08;100384.56;5080719;28;20062;-82
2023/11/19 10:03:18;;;;;;;30.60;3.72;;;;;;;8.05;62.04;100384.50;5077955;28;20650;-83
2023/11/19 10:05:43;;;;;;;27.83;3.40;;;;;;;8.00;61.86;100399.41;5072702;28;20048;-80
2023/11/19 10:08:10;;;;;;;27.25;5.45;;;;;;;7.74;62.08;100390.81;5074942;28;20048;-83
2023/11/19 10:10:37;;;;;;;31.40;2.92;;;;;;;8.03;61.64;100393.28;5078718;28;20096;-80
2023/11/19 10:13:03;;;;;;;30.02;4.82;;;;;;;8.50;60.87;100388.84;5076606;28;20051;-80
2023/11/19 10:15:42;;;;;;;31.73;3.65;;;;;;;8.70;59.49;100385.47;5077684;28;20028;-85
2023/11/19 10:18:07;;;;;;;31.77;3.67;;;;;;;8.19;60.56;100378.78;5048206;28;20047;-83
2023/11/19 10:20:37;;;;;;;24.77;4.90;;;;;;;8.36;60.56;100401.56;5088582;28;20092;-80
2023/11/19 10:23:15;;;;;;;22.58;3.22;;;;;;;8.29;60.54;100394.88;5080269;28;20044;-81
2023/11/19 10:25:41;;;;;;;37.92;5.57;;;;;;;8.03;61.09;100394.13;5084603;28;20055;-81
2023/11/19 10:28:06;;;;;;;28.92;4.30;;;;;;;8.09;61.15;100385.22;5047940;28;20587;-81
2023/11/19 10:30:33;;;;;;;30.05;3.35;;;;;;;8.23;61.20;100374.31;5064890;28;20036;-80
2023/11/19 10:33:09;;;;;;;28.83;4.60;;;;;;;8.29;61.09;100379.25;5083951;28;20031;-79
2023/11/19 10:35:53;;;;;;;18.25;3.17;;;;;;;8.47;60.45;100375.97;5093787;28;20041;-84
2023/11/19 10:38:20;;;;;;;26.35;5.13;;;;;;;8.87;59.49;100376.97;5071648;28;20054;-81
2023/11/19 10:40:45;;;;;;;23.65;4.03;;;;;;;8.98;59.11;100369.59;5062769;28;20031;-81
2023/11/19 10:43:11;;;;;;;30.35;4.85;;;;;;;9.05;58.49;100370.16;5065660;28;20055;-80
2023/11/19 10:45:39;;;;;;;28.17;3.47;;;;;;;9.19;57.87;100367.00;5082343;28;20029;-82
2023/11/19 10:48:07;;;;;;;24.95;4.68;;;;;;;9.57;57.80;100380.16;5082537;28;20041;-82
2023/11/19 10:50:37;;;;;;;26.63;3.80;;;;;;;9.59;57.50;100378.34;5068944;28;20050;-80
2023/11/19 10:53:04;;;;;;;23.75;4.55;;;;;;;9.78;56.88;100375.75;5072444;28;20048;-79
2023/11/19 10:55:40;;;;;;;32.35;4.28;;;;;;;8.63;58.95;100385.75;5070584;28;20116;-80
2023/11/19 10:58:07;;;;;;;34.00;4.13;;;;;;;9.39;58.04;100393.06;5053141;28;20073;-82
2023/11/19 11:00:50;;;;;;;32.25;4.25;;;;;;;8.97;58.82;100399.16;5074689;28;20035;-81
2023/11/19 11:03:22;;;;;;;22.67;2.78;;;;;;;9.39;57.81;100385.25;5046182;28;20160;-81
2023/11/19 11:05:49;;;;;;;;;;;;;;;9.23;58.19;100379.00;5068824;28;20700;-80
2023/11/19 11:08:15;;;;;;;25.13;3.60;;;;;;;9.51;57.80;100380.41;5047296;28;19938;-81
2023/11/19 11:10:48;;;;;;;27.25;3.05;;;;;;;9.99;56.79;100380.03;5057394;28;20024;-82
2023/11/19 11:13:14;;;;;;;33.92;3.78;;;;;;;10.00;56.32;100383.50;5064780;28;20127;-82
2023/11/19 11:15:42;;;;;;;37.28;3.97;;;;;;;9.99;56.32;100373.94;5087395;27;20089;-82
2023/11/19 11:18:09;;;;;;;24.05;3.13;;;;;;;9.55;56.56;100381.97;5065248;28;20117;-81
2023/11/19 11:20:35;;;;;;;28.58;3.70;;;;;;;9.15;58.08;100375.84;5055843;28;20596;-81
2023/11/19 11:23:30;;;;;;;27.13;3.22;;;;;;;9.11;58.04;100375.13;5052451;28;20073;-81
2023/11/19 11:26:23;;;;;;;27.00;4.68;;;;;;;9.15;58.25;100375.84;5031104;28;20044;-81